sensor_id;sensor_type;location;lat;lon;timestamp;temperature;humidity
23633;DHT22;11993;48.748;9.166;2022-12-29T00:02:13;8.30;68.30
23633;DHT22;11993;48.748;9.166;2022-12-29T00:04:38;8.40;68.30
23633;DHT22;11993;48.748;9.166;2022-12-29T00:07:05;8.40;68.20
23633;DHT22;11993;48.748;9.166;2022-12-29T00:09:31;8.50;68.00
23633;DHT22;11993;48.748;9.166;2022-12-29T00:11:57;8.50;68.00
23633;DHT22;11993;48.748;9.166;2022-12-29T00:14:23;8.50;68.10
23633;DHT22;11993;48.748;9.166;2022-12-29T00:17:08;8.50;67.80
23633;DHT22;11993;48.748;9.166;2022-12-29T00:19:34;8.60;67.60
23633;DHT22;11993;48.748;9.166;2022-12-29T00:22:18;8.60;67.70
23633;DHT22;11993;48.748;9.166;2022-12-29T00:25:03;8.60;67.50
23633;DHT22;11993;48.748;9.166;2022-12-29T00:27:47;8.70;67.20
23633;DHT22;11993;48.748;9.166;2022-12-29T00:30:31;8.80;67.00
23633;DHT22;11993;48.748;9.166;2022-12-29T00:33:17;8.90;66.60
23633;DHT22;11993;48.748;9.166;2022-12-29T00:36:13;8.90;66.70
23633;DHT22;11993;48.748;9.166;2022-12-29T00:38:43;8.90;66.60
23633;DHT22;11993;48.748;9.166;2022-12-29T00:41:28;8.90;66.50
23633;DHT22;11993;48.748;9.166;2022-12-29T00:44:13;9.00;66.40
23633;DHT22;11993;48.748;9.166;2022-12-29T00:46:41;9.10;65.90
23633;DHT22;11993;48.748;9.166;2022-12-29T00:49:09;9.10;65.90
23633;DHT22;11993;48.748;9.166;2022-12-29T00:51:55;9.10;65.70
23633;DHT22;11993;48.748;9.166;2022-12-29T00:54:21;9.10;65.70
23633;DHT22;11993;48.748;9.166;2022-12-29T00:56:48;9.10;65.80
23633;DHT22;11993;48.748;9.166;2022-12-29T00:59:14;9.10;65.70
23633;DHT22;11993;48.748;9.166;2022-12-29T01:01:39;9.20;65.70
23633;DHT22;11993;48.748;9.166;2022-12-29T01:04:05;9.20;65.80
23633;DHT22;11993;48.748;9.166;2022-12-29T01:06:31;9.20;65.60
23633;DHT22;11993;48.748;9.166;2022-12-29T01:08:57;9.10;66.00
23633;DHT22;11993;48.748;9.166;2022-12-29T01:11:41;9.10;66.10
23633;DHT22;11993;48.748;9.166;2022-12-29T01:14:07;9.10;65.90
23633;DHT22;11993;48.748;9.166;2022-12-29T01:16:33;9.10;66.20
23633;DHT22;11993;48.748;9.166;2022-12-29T01:18:59;9.10;66.20
23633;DHT22;11993;48.748;9.166;2022-12-29T01:21:25;9.10;66.00
23633;DHT22;11993;48.748;9.166;2022-12-29T01:23:50;9.10;66.30
23633;DHT22;11993;48.748;9.166;2022-12-29T01:26:17;9.10;66.40
23633;DHT22;11993;48.748;9.166;2022-12-29T01:28:44;9.10;66.40
23633;DHT22;11993;48.748;9.166;2022-12-29T01:31:11;9.00;66.70
23633;DHT22;11993;48.748;9.166;2022-12-29T01:33:37;9.10;66.50
23633;DHT22;11993;48.748;9.166;2022-12-29T01:36:04;9.00;66.70
23633;DHT22;11993;48.748;9.166;2022-12-29T01:38:31;9.00;66.80
23633;DHT22;11993;48.748;9.166;2022-12-29T01:40:56;9.10;66.80
23633;DHT22;11993;48.748;9.166;2022-12-29T01:46:35;9.00;67.00
23633;DHT22;11993;48.748;9.166;2022-12-29T01:49:11;9.10;66.90
23633;DHT22;11993;48.748;9.166;2022-12-29T01:51:57;9.00;67.00
23633;DHT22;11993;48.748;9.166;2022-12-29T01:54:28;9.00;67.20
23633;DHT22;11993;48.748;9.166;2022-12-29T01:56:57;9.00;66.90
23633;DHT22;11993;48.748;9.166;2022-12-29T01:59:27;9.00;67.00
23633;DHT22;11993;48.748;9.166;2022-12-29T02:02:01;9.00;67.10
23633;DHT22;11993;48.748;9.166;2022-12-29T02:04:27;9.10;66.70
23633;DHT22;11993;48.748;9.166;2022-12-29T02:07:01;9.00;66.90
23633;DHT22;11993;48.748;9.166;2022-12-29T02:09:28;9.00;67.20
23633;DHT22;11993;48.748;9.166;2022-12-29T02:11:54;9.10;66.90
23633;DHT22;11993;48.748;9.166;2022-12-29T02:14:19;9.10;66.80
23633;DHT22;11993;48.748;9.166;2022-12-29T02:25:38;9.10;66.80
23633;DHT22;11993;48.748;9.166;2022-12-29T02:31:31;9.10;66.40
23633;DHT22;11993;48.748;9.166;2022-12-29T02:34:18;9.10;66.20
23633;DHT22;11993;48.748;9.166;2022-12-29T02:39:40;9.10;66.30
23633;DHT22;11993;48.748;9.166;2022-12-29T02:45:08;9.20;66.20
23633;DHT22;11993;48.748;9.166;2022-12-29T02:47:48;9.20;66.10
23633;DHT22;11993;48.748;9.166;2022-12-29T02:50:26;9.20;66.00
23633;DHT22;11993;48.748;9.166;2022-12-29T02:53:01;9.20;66.10
23633;DHT22;11993;48.748;9.166;2022-12-29T02:55:27;9.30;65.90
23633;DHT22;11993;48.748;9.166;2022-12-29T02:58:19;9.40;65.90
23633;DHT22;11993;48.748;9.166;2022-12-29T03:01:07;9.40;65.80
23633;DHT22;11993;48.748;9.166;2022-12-29T03:11:24;9.60;65.30
23633;DHT22;11993;48.748;9.166;2022-12-29T03:14:16;9.60;65.20
23633;DHT22;11993;48.748;9.166;2022-12-29T03:17:24;9.60;65.40
23633;DHT22;11993;48.748;9.166;2022-12-29T03:19:54;9.60;65.10
23633;DHT22;11993;48.748;9.166;2022-12-29T03:22:28;9.60;65.30
23633;DHT22;11993;48.748;9.166;2022-12-29T03:25:19;9.60;65.30
23633;DHT22;11993;48.748;9.166;2022-12-29T03:28:05;9.60;65.10
23633;DHT22;11993;48.748;9.166;2022-12-29T03:30:33;9.60;65.20
23633;DHT22;11993;48.748;9.166;2022-12-29T03:33:02;9.60;65.20
23633;DHT22;11993;48.748;9.166;2022-12-29T03:35:32;9.60;65.20
23633;DHT22;11993;48.748;9.166;2022-12-29T03:40:37;9.70;65.00
23633;DHT22;11993;48.748;9.166;2022-12-29T03:43:04;9.80;64.80
23633;DHT22;11993;48.748;9.166;2022-12-29T03:45:30;9.80;65.00
23633;DHT22;11993;48.748;9.166;2022-12-29T03:47:55;9.90;65.00
23633;DHT22;11993;48.748;9.166;2022-12-29T03:50:21;10.00;65.00
23633;DHT22;11993;48.748;9.166;2022-12-29T03:52:47;10.10;64.70
23633;DHT22;11993;48.748;9.166;2022-12-29T03:55:12;10.10;64.80
23633;DHT22;11993;48.748;9.166;2022-12-29T03:57:38;10.10;64.80
23633;DHT22;11993;48.748;9.166;2022-12-29T04:00:05;10.10;64.90
23633;DHT22;11993;48.748;9.166;2022-12-29T04:02:30;10.10;65.00
23633;DHT22;11993;48.748;9.166;2022-12-29T04:04:56;10.10;65.00
23633;DHT22;11993;48.748;9.166;2022-12-29T04:07:22;9.90;65.30
23633;DHT22;11993;48.748;9.166;2022-12-29T04:09:47;9.90;65.60
23633;DHT22;11993;48.748;9.166;2022-12-29T04:12:13;9.80;65.90
23633;DHT22;11993;48.748;9.166;2022-12-29T04:14:39;9.70;66.10
23633;DHT22;11993;48.748;9.166;2022-12-29T04:17:05;9.80;66.40
23633;DHT22;11993;48.748;9.166;2022-12-29T04:19:31;9.80;66.50
23633;DHT22;11993;48.748;9.166;2022-12-29T04:21:56;9.80;66.60
23633;DHT22;11993;48.748;9.166;2022-12-29T04:24:21;9.70;67.00
23633;DHT22;11993;48.748;9.166;2022-12-29T04:26:47;9.70;67.00
23633;DHT22;11993;48.748;9.166;2022-12-29T04:29:12;9.70;67.30
23633;DHT22;11993;48.748;9.166;2022-12-29T04:31:38;9.70;67.30
23633;DHT22;11993;48.748;9.166;2022-12-29T04:34:03;9.80;67.40
23633;DHT22;11993;48.748;9.166;2022-12-29T04:36:29;9.80;67.60
23633;DHT22;11993;48.748;9.166;2022-12-29T04:38:55;9.90;67.40
23633;DHT22;11993;48.748;9.166;2022-12-29T04:41:20;10.00;67.50
23633;DHT22;11993;48.748;9.166;2022-12-29T04:43:46;10.00;67.60
23633;DHT22;11993;48.748;9.166;2022-12-29T04:46:11;10.00;67.80
23633;DHT22;11993;48.748;9.166;2022-12-29T04:48:37;10.10;67.60
23633;DHT22;11993;48.748;9.166;2022-12-29T04:51:02;10.00;68.00
23633;DHT22;11993;48.748;9.166;2022-12-29T04:53:28;10.10;68.00
23633;DHT22;11993;48.748;9.166;2022-12-29T04:55:53;10.10;67.90
23633;DHT22;11993;48.748;9.166;2022-12-29T04:58:20;10.10;68.10
23633;DHT22;11993;48.748;9.166;2022-12-29T05:00:45;10.10;68.10
23633;DHT22;11993;48.748;9.166;2022-12-29T05:03:11;10.10;68.10
23633;DHT22;11993;48.748;9.166;2022-12-29T05:05:37;10.00;68.40
23633;DHT22;11993;48.748;9.166;2022-12-29T05:08:02;10.10;68.40
23633;DHT22;11993;48.748;9.166;2022-12-29T05:10:28;10.10;68.30
23633;DHT22;11993;48.748;9.166;2022-12-29T05:12:54;10.00;68.70
23633;DHT22;11993;48.748;9.166;2022-12-29T05:15:19;10.10;68.10
23633;DHT22;11993;48.748;9.166;2022-12-29T05:17:45;10.10;68.10
23633;DHT22;11993;48.748;9.166;2022-12-29T05:20:10;10.10;68.30
23633;DHT22;11993;48.748;9.166;2022-12-29T05:22:36;10.10;68.50
23633;DHT22;11993;48.748;9.166;2022-12-29T05:25:02;10.00;68.80
23633;DHT22;11993;48.748;9.166;2022-12-29T05:27:28;10.00;68.70
23633;DHT22;11993;48.748;9.166;2022-12-29T05:29:54;9.90;68.90
23633;DHT22;11993;48.748;9.166;2022-12-29T05:32:19;9.90;68.90
23633;DHT22;11993;48.748;9.166;2022-12-29T05:34:45;9.80;69.20
23633;DHT22;11993;48.748;9.166;2022-12-29T05:37:11;10.00;68.80
23633;DHT22;11993;48.748;9.166;2022-12-29T05:39:36;10.00;68.80
23633;DHT22;11993;48.748;9.166;2022-12-29T05:42:02;9.90;68.90
23633;DHT22;11993;48.748;9.166;2022-12-29T05:44:27;9.90;68.90
23633;DHT22;11993;48.748;9.166;2022-12-29T05:46:53;9.90;68.80
23633;DHT22;11993;48.748;9.166;2022-12-29T05:49:19;10.00;68.60
23633;DHT22;11993;48.748;9.166;2022-12-29T05:51:44;10.00;68.40
23633;DHT22;11993;48.748;9.166;2022-12-29T05:54:10;9.90;68.60
23633;DHT22;11993;48.748;9.166;2022-12-29T05:56:35;9.90;68.40
23633;DHT22;11993;48.748;9.166;2022-12-29T05:59:01;10.00;68.30
23633;DHT22;11993;48.748;9.166;2022-12-29T06:01:27;10.00;68.30
23633;DHT22;11993;48.748;9.166;2022-12-29T06:03:52;10.00;68.40
23633;DHT22;11993;48.748;9.166;2022-12-29T06:06:18;9.90;68.60
23633;DHT22;11993;48.748;9.166;2022-12-29T06:08:43;10.00;68.10
23633;DHT22;11993;48.748;9.166;2022-12-29T06:11:09;10.00;67.70
23633;DHT22;11993;48.748;9.166;2022-12-29T06:13:35;9.90;67.90
23633;DHT22;11993;48.748;9.166;2022-12-29T06:16:00;10.10;67.40
23633;DHT22;11993;48.748;9.166;2022-12-29T06:18:26;10.00;67.50
23633;DHT22;11993;48.748;9.166;2022-12-29T06:20:52;10.10;67.30
23633;DHT22;11993;48.748;9.166;2022-12-29T06:23:17;10.00;67.50
23633;DHT22;11993;48.748;9.166;2022-12-29T06:25:44;10.10;67.60
23633;DHT22;11993;48.748;9.166;2022-12-29T06:28:09;10.00;67.60
23633;DHT22;11993;48.748;9.166;2022-12-29T06:30:36;9.80;67.90
23633;DHT22;11993;48.748;9.166;2022-12-29T06:33:01;9.70;67.80
23633;DHT22;11993;48.748;9.166;2022-12-29T06:35:27;9.60;67.70
23633;DHT22;11993;48.748;9.166;2022-12-29T06:37:53;9.60;67.80
23633;DHT22;11993;48.748;9.166;2022-12-29T06:40:20;9.60;67.80
23633;DHT22;11993;48.748;9.166;2022-12-29T06:42:46;9.60;67.90
23633;DHT22;11993;48.748;9.166;2022-12-29T06:45:12;9.50;67.70
23633;DHT22;11993;48.748;9.166;2022-12-29T06:47:38;9.60;67.40
23633;DHT22;11993;48.748;9.166;2022-12-29T06:50:03;9.60;67.00
23633;DHT22;11993;48.748;9.166;2022-12-29T06:52:29;9.60;67.10
23633;DHT22;11993;48.748;9.166;2022-12-29T06:54:56;9.50;67.20
23633;DHT22;11993;48.748;9.166;2022-12-29T06:57:21;9.60;67.00
23633;DHT22;11993;48.748;9.166;2022-12-29T06:59:47;9.60;66.90
23633;DHT22;11993;48.748;9.166;2022-12-29T07:02:13;9.60;66.70
23633;DHT22;11993;48.748;9.166;2022-12-29T07:04:40;9.60;66.50
23633;DHT22;11993;48.748;9.166;2022-12-29T07:07:05;9.60;66.50
23633;DHT22;11993;48.748;9.166;2022-12-29T07:09:31;9.60;66.50
23633;DHT22;11993;48.748;9.166;2022-12-29T07:11:56;9.60;66.70
23633;DHT22;11993;48.748;9.166;2022-12-29T07:14:22;9.60;66.80
23633;DHT22;11993;48.748;9.166;2022-12-29T07:16:48;9.60;66.90
23633;DHT22;11993;48.748;9.166;2022-12-29T07:19:13;9.60;66.80
23633;DHT22;11993;48.748;9.166;2022-12-29T07:21:39;9.50;67.00
23633;DHT22;11993;48.748;9.166;2022-12-29T07:24:04;9.50;67.00
23633;DHT22;11993;48.748;9.166;2022-12-29T07:26:30;9.50;67.00
23633;DHT22;11993;48.748;9.166;2022-12-29T07:28:56;9.40;67.50
23633;DHT22;11993;48.748;9.166;2022-12-29T07:31:22;9.40;67.60
23633;DHT22;11993;48.748;9.166;2022-12-29T07:33:48;9.50;67.50
23633;DHT22;11993;48.748;9.166;2022-12-29T07:36:15;9.40;67.50
23633;DHT22;11993;48.748;9.166;2022-12-29T07:38:42;9.40;67.70
23633;DHT22;11993;48.748;9.166;2022-12-29T07:41:07;9.50;67.30
23633;DHT22;11993;48.748;9.166;2022-12-29T07:43:33;9.50;67.40
23633;DHT22;11993;48.748;9.166;2022-12-29T07:45:59;9.50;67.60
23633;DHT22;11993;48.748;9.166;2022-12-29T07:48:24;9.50;67.90
23633;DHT22;11993;48.748;9.166;2022-12-29T07:50:50;9.60;67.80
23633;DHT22;11993;48.748;9.166;2022-12-29T07:53:17;9.60;67.70
23633;DHT22;11993;48.748;9.166;2022-12-29T07:55:42;9.60;67.60
23633;DHT22;11993;48.748;9.166;2022-12-29T07:58:08;9.60;68.10
23633;DHT22;11993;48.748;9.166;2022-12-29T08:00:33;9.60;68.20
23633;DHT22;11993;48.748;9.166;2022-12-29T08:02:59;9.60;67.90
23633;DHT22;11993;48.748;9.166;2022-12-29T08:05:26;9.70;67.80
23633;DHT22;11993;48.748;9.166;2022-12-29T08:07:53;9.70;68.00
23633;DHT22;11993;48.748;9.166;2022-12-29T08:10:19;9.70;67.90
23633;DHT22;11993;48.748;9.166;2022-12-29T08:12:45;9.70;67.80
23633;DHT22;11993;48.748;9.166;2022-12-29T08:15:13;9.70;68.00
23633;DHT22;11993;48.748;9.166;2022-12-29T08:17:38;9.70;68.00
23633;DHT22;11993;48.748;9.166;2022-12-29T08:20:05;9.80;67.90
23633;DHT22;11993;48.748;9.166;2022-12-29T08:22:30;9.70;68.20
23633;DHT22;11993;48.748;9.166;2022-12-29T08:24:56;9.80;67.90
23633;DHT22;11993;48.748;9.166;2022-12-29T08:27:21;9.90;67.80
23633;DHT22;11993;48.748;9.166;2022-12-29T08:29:47;9.90;67.70
23633;DHT22;11993;48.748;9.166;2022-12-29T08:32:13;9.90;67.80
23633;DHT22;11993;48.748;9.166;2022-12-29T08:34:39;9.90;67.60
23633;DHT22;11993;48.748;9.166;2022-12-29T08:37:04;9.90;67.80
23633;DHT22;11993;48.748;9.166;2022-12-29T08:39:30;10.00;67.70
23633;DHT22;11993;48.748;9.166;2022-12-29T08:41:55;10.00;67.60
23633;DHT22;11993;48.748;9.166;2022-12-29T08:44:21;10.00;67.50
23633;DHT22;11993;48.748;9.166;2022-12-29T08:46:46;10.10;67.40
23633;DHT22;11993;48.748;9.166;2022-12-29T08:49:12;10.10;67.30
23633;DHT22;11993;48.748;9.166;2022-12-29T08:51:38;10.20;66.90
23633;DHT22;11993;48.748;9.166;2022-12-29T08:54:03;10.20;66.80
23633;DHT22;11993;48.748;9.166;2022-12-29T08:56:29;10.20;66.70
23633;DHT22;11993;48.748;9.166;2022-12-29T08:58:54;10.20;66.50
23633;DHT22;11993;48.748;9.166;2022-12-29T09:01:20;10.40;66.10
23633;DHT22;11993;48.748;9.166;2022-12-29T09:03:46;10.30;66.30
23633;DHT22;11993;48.748;9.166;2022-12-29T09:06:13;10.30;66.30
23633;DHT22;11993;48.748;9.166;2022-12-29T09:08:39;10.40;66.10
23633;DHT22;11993;48.748;9.166;2022-12-29T09:11:09;10.40;66.10
23633;DHT22;11993;48.748;9.166;2022-12-29T09:13:35;10.40;66.00
23633;DHT22;11993;48.748;9.166;2022-12-29T09:16:01;10.40;65.80
23633;DHT22;11993;48.748;9.166;2022-12-29T09:18:26;10.50;65.80
23633;DHT22;11993;48.748;9.166;2022-12-29T09:21:00;10.50;65.40
23633;DHT22;11993;48.748;9.166;2022-12-29T09:23:26;10.60;65.50
23633;DHT22;11993;48.748;9.166;2022-12-29T09:25:52;10.60;65.20
23633;DHT22;11993;48.748;9.166;2022-12-29T09:28:18;10.60;65.20
23633;DHT22;11993;48.748;9.166;2022-12-29T09:30:44;10.60;65.20
23633;DHT22;11993;48.748;9.166;2022-12-29T09:33:09;10.70;65.10
23633;DHT22;11993;48.748;9.166;2022-12-29T09:35:35;10.60;65.40
23633;DHT22;11993;48.748;9.166;2022-12-29T09:38:00;10.60;65.50
23633;DHT22;11993;48.748;9.166;2022-12-29T09:40:33;10.70;65.40
23633;DHT22;11993;48.748;9.166;2022-12-29T09:43:17;10.70;65.20
23633;DHT22;11993;48.748;9.166;2022-12-29T09:45:59;10.80;65.00
23633;DHT22;11993;48.748;9.166;2022-12-29T09:48:39;10.70;65.10
23633;DHT22;11993;48.748;9.166;2022-12-29T09:51:10;10.80;64.80
23633;DHT22;11993;48.748;9.166;2022-12-29T09:53:46;10.80;65.20
23633;DHT22;11993;48.748;9.166;2022-12-29T09:56:18;10.90;64.90
23633;DHT22;11993;48.748;9.166;2022-12-29T09:58:52;11.10;64.50
23633;DHT22;11993;48.748;9.166;2022-12-29T10:04:17;11.10;64.50
23633;DHT22;11993;48.748;9.166;2022-12-29T10:07:09;11.10;64.20
23633;DHT22;11993;48.748;9.166;2022-12-29T10:10:13;11.10;64.30
23633;DHT22;11993;48.748;9.166;2022-12-29T10:15:43;11.10;64.40
23633;DHT22;11993;48.748;9.166;2022-12-29T10:18:31;11.10;64.80
23633;DHT22;11993;48.748;9.166;2022-12-29T10:21:17;11.10;65.00
23633;DHT22;11993;48.748;9.166;2022-12-29T10:23:52;11.20;64.80
23633;DHT22;11993;48.748;9.166;2022-12-29T10:26:23;11.30;64.70
23633;DHT22;11993;48.748;9.166;2022-12-29T10:31:47;11.20;65.30
23633;DHT22;11993;48.748;9.166;2022-12-29T10:34:34;11.30;65.30
23633;DHT22;11993;48.748;9.166;2022-12-29T10:42:50;11.60;64.30
23633;DHT22;11993;48.748;9.166;2022-12-29T10:45:19;11.80;64.10
23633;DHT22;11993;48.748;9.166;2022-12-29T10:48:08;12.10;63.70
23633;DHT22;11993;48.748;9.166;2022-12-29T10:50:34;12.30;62.70
23633;DHT22;11993;48.748;9.166;2022-12-29T10:53:04;12.50;62.30
23633;DHT22;11993;48.748;9.166;2022-12-29T10:55:37;12.80;61.60
23633;DHT22;11993;48.748;9.166;2022-12-29T10:58:06;13.30;60.20
23633;DHT22;11993;48.748;9.166;2022-12-29T11:00:33;13.70;58.60
23633;DHT22;11993;48.748;9.166;2022-12-29T11:03:14;13.70;58.00
23633;DHT22;11993;48.748;9.166;2022-12-29T11:06:24;13.60;58.50
23633;DHT22;11993;48.748;9.166;2022-12-29T11:09:07;13.60;58.80
23633;DHT22;11993;48.748;9.166;2022-12-29T11:11:36;13.20;59.40
23633;DHT22;11993;48.748;9.166;2022-12-29T11:14:18;12.80;60.20
23633;DHT22;11993;48.748;9.166;2022-12-29T11:16:44;12.80;60.80
23633;DHT22;11993;48.748;9.166;2022-12-29T11:19:23;12.60;61.30
23633;DHT22;11993;48.748;9.166;2022-12-29T11:21:49;12.40;61.50
23633;DHT22;11993;48.748;9.166;2022-12-29T11:24:21;12.40;62.20
23633;DHT22;11993;48.748;9.166;2022-12-29T11:27:14;12.30;61.90
23633;DHT22;11993;48.748;9.166;2022-12-29T11:29:40;12.20;62.80
23633;DHT22;11993;48.748;9.166;2022-12-29T11:32:18;12.20;63.20
23633;DHT22;11993;48.748;9.166;2022-12-29T11:34:44;12.10;63.40
23633;DHT22;11993;48.748;9.166;2022-12-29T11:37:13;12.10;63.60
23633;DHT22;11993;48.748;9.166;2022-12-29T11:39:53;12.10;64.20
23633;DHT22;11993;48.748;9.166;2022-12-29T11:42:24;12.10;65.70
23633;DHT22;11993;48.748;9.166;2022-12-29T11:44:54;11.80;66.40
23633;DHT22;11993;48.748;9.166;2022-12-29T11:47:27;11.70;67.80
23633;DHT22;11993;48.748;9.166;2022-12-29T11:49:57;11.70;68.60
23633;DHT22;11993;48.748;9.166;2022-12-29T11:52:25;11.70;68.70
23633;DHT22;11993;48.748;9.166;2022-12-29T11:54:53;11.70;68.10
23633;DHT22;11993;48.748;9.166;2022-12-29T11:57:22;11.60;68.20
23633;DHT22;11993;48.748;9.166;2022-12-29T11:59:55;11.60;68.20
23633;DHT22;11993;48.748;9.166;2022-12-29T12:05:24;11.60;68.30
23633;DHT22;11993;48.748;9.166;2022-12-29T12:10:46;11.60;67.70
23633;DHT22;11993;48.748;9.166;2022-12-29T12:13:20;11.60;68.00
23633;DHT22;11993;48.748;9.166;2022-12-29T12:15:52;11.50;67.90
23633;DHT22;11993;48.748;9.166;2022-12-29T12:20:57;11.50;68.00
23633;DHT22;11993;48.748;9.166;2022-12-29T12:28:52;11.40;68.70
23633;DHT22;11993;48.748;9.166;2022-12-29T12:31:41;11.40;68.80
23633;DHT22;11993;48.748;9.166;2022-12-29T12:34:24;11.50;69.00
23633;DHT22;11993;48.748;9.166;2022-12-29T12:48:11;11.10;74.20
23633;DHT22;11993;48.748;9.166;2022-12-29T12:53:44;11.00;74.80
23633;DHT22;11993;48.748;9.166;2022-12-29T12:56:34;11.10;74.40
23633;DHT22;11993;48.748;9.166;2022-12-29T13:08:03;12.10;72.10
23633;DHT22;11993;48.748;9.166;2022-12-29T13:10:41;12.60;69.70
23633;DHT22;11993;48.748;9.166;2022-12-29T13:21:34;13.00;68.20
23633;DHT22;11993;48.748;9.166;2022-12-29T13:27:05;13.00;67.40
23633;DHT22;11993;48.748;9.166;2022-12-29T13:29:40;12.60;67.90
23633;DHT22;11993;48.748;9.166;2022-12-29T13:35:30;12.10;70.10
23633;DHT22;11993;48.748;9.166;2022-12-29T13:40:50;11.70;71.60
23633;DHT22;11993;48.748;9.166;2022-12-29T13:43:19;11.60;72.10
23633;DHT22;11993;48.748;9.166;2022-12-29T13:45:45;11.50;72.40
23633;DHT22;11993;48.748;9.166;2022-12-29T13:48:25;11.50;72.50
23633;DHT22;11993;48.748;9.166;2022-12-29T13:50:57;11.40;73.00
23633;DHT22;11993;48.748;9.166;2022-12-29T13:53:55;11.30;73.30
23633;DHT22;11993;48.748;9.166;2022-12-29T13:56:40;11.30;73.70
23633;DHT22;11993;48.748;9.166;2022-12-29T13:59:36;11.30;73.80
23633;DHT22;11993;48.748;9.166;2022-12-29T14:04:34;11.20;74.30
23633;DHT22;11993;48.748;9.166;2022-12-29T14:07:01;11.20;74.20
23633;DHT22;11993;48.748;9.166;2022-12-29T14:09:50;11.30;74.10
23633;DHT22;11993;48.748;9.166;2022-12-29T14:12:36;11.60;73.60
23633;DHT22;11993;48.748;9.166;2022-12-29T14:17:34;11.70;72.70
23633;DHT22;11993;48.748;9.166;2022-12-29T14:20:00;11.60;73.00
23633;DHT22;11993;48.748;9.166;2022-12-29T14:22:27;11.40;73.90
23633;DHT22;11993;48.748;9.166;2022-12-29T14:24:53;11.20;74.20
23633;DHT22;11993;48.748;9.166;2022-12-29T14:29:46;11.20;74.00
23633;DHT22;11993;48.748;9.166;2022-12-29T14:34:54;11.60;72.60
23633;DHT22;11993;48.748;9.166;2022-12-29T14:37:33;12.10;71.30
23633;DHT22;11993;48.748;9.166;2022-12-29T14:40:16;11.90;71.20
23633;DHT22;11993;48.748;9.166;2022-12-29T14:42:49;11.60;72.40
23633;DHT22;11993;48.748;9.166;2022-12-29T14:47:47;11.30;73.60
23633;DHT22;11993;48.748;9.166;2022-12-29T14:52:48;11.30;73.70
23633;DHT22;11993;48.748;9.166;2022-12-29T14:57:44;11.20;73.80
23633;DHT22;11993;48.748;9.166;2022-12-29T15:00:24;11.20;73.60
23633;DHT22;11993;48.748;9.166;2022-12-29T15:03:07;11.10;73.60
23633;DHT22;11993;48.748;9.166;2022-12-29T15:08:13;11.00;73.50
23633;DHT22;11993;48.748;9.166;2022-12-29T15:10:56;11.10;73.30
23633;DHT22;11993;48.748;9.166;2022-12-29T15:13:33;11.00;73.30
23633;DHT22;11993;48.748;9.166;2022-12-29T15:15:59;10.90;73.50
23633;DHT22;11993;48.748;9.166;2022-12-29T15:18:34;10.90;73.60
23633;DHT22;11993;48.748;9.166;2022-12-29T15:21:04;10.80;73.50
23633;DHT22;11993;48.748;9.166;2022-12-29T15:23:34;10.90;73.30
23633;DHT22;11993;48.748;9.166;2022-12-29T15:26:05;10.80;73.40
23633;DHT22;11993;48.748;9.166;2022-12-29T15:28:40;10.80;73.70
23633;DHT22;11993;48.748;9.166;2022-12-29T15:31:13;10.70;73.70
23633;DHT22;11993;48.748;9.166;2022-12-29T15:33:45;10.70;73.70
23633;DHT22;11993;48.748;9.166;2022-12-29T15:36:18;10.70;73.60
23633;DHT22;11993;48.748;9.166;2022-12-29T15:38:45;10.70;73.60
23633;DHT22;11993;48.748;9.166;2022-12-29T15:41:39;10.70;73.60
23633;DHT22;11993;48.748;9.166;2022-12-29T15:44:42;10.70;73.40
23633;DHT22;11993;48.748;9.166;2022-12-29T15:47:18;10.60;73.60
23633;DHT22;11993;48.748;9.166;2022-12-29T15:49:47;10.60;73.60
23633;DHT22;11993;48.748;9.166;2022-12-29T15:52:17;10.70;73.50
23633;DHT22;11993;48.748;9.166;2022-12-29T15:54:43;10.70;73.30
23633;DHT22;11993;48.748;9.166;2022-12-29T15:57:29;10.70;73.20
23633;DHT22;11993;48.748;9.166;2022-12-29T15:59:56;10.70;73.20
23633;DHT22;11993;48.748;9.166;2022-12-29T16:02:23;10.80;73.00
23633;DHT22;11993;48.748;9.166;2022-12-29T16:04:49;10.80;72.90
23633;DHT22;11993;48.748;9.166;2022-12-29T16:07:32;10.90;73.30
23633;DHT22;11993;48.748;9.166;2022-12-29T16:10:01;10.70;74.50
23633;DHT22;11993;48.748;9.166;2022-12-29T16:12:33;10.60;75.40
23633;DHT22;11993;48.748;9.166;2022-12-29T16:15:04;10.60;76.60
23633;DHT22;11993;48.748;9.166;2022-12-29T16:17:36;10.40;77.70
23633;DHT22;11993;48.748;9.166;2022-12-29T16:20:17;10.20;78.60
23633;DHT22;11993;48.748;9.166;2022-12-29T16:22:49;10.10;79.20
23633;DHT22;11993;48.748;9.166;2022-12-29T16:25:22;10.10;79.60
23633;DHT22;11993;48.748;9.166;2022-12-29T16:27:48;10.00;79.90
23633;DHT22;11993;48.748;9.166;2022-12-29T16:30:21;10.00;80.30
23633;DHT22;11993;48.748;9.166;2022-12-29T16:32:49;9.90;80.40
23633;DHT22;11993;48.748;9.166;2022-12-29T16:35:21;9.90;80.50
23633;DHT22;11993;48.748;9.166;2022-12-29T16:37:48;9.80;80.60
23633;DHT22;11993;48.748;9.166;2022-12-29T16:50:40;9.70;81.30
23633;DHT22;11993;48.748;9.166;2022-12-29T16:53:26;9.70;81.30
23633;DHT22;11993;48.748;9.166;2022-12-29T16:55:53;9.70;81.40
23633;DHT22;11993;48.748;9.166;2022-12-29T16:58:22;9.70;81.40
23633;DHT22;11993;48.748;9.166;2022-12-29T17:00:48;9.80;81.60
23633;DHT22;11993;48.748;9.166;2022-12-29T17:03:15;9.70;81.90
23633;DHT22;11993;48.748;9.166;2022-12-29T17:05:41;9.70;81.90
23633;DHT22;11993;48.748;9.166;2022-12-29T17:08:20;9.70;82.10
23633;DHT22;11993;48.748;9.166;2022-12-29T17:10:50;9.70;82.20
23633;DHT22;11993;48.748;9.166;2022-12-29T17:13:35;9.70;82.30
23633;DHT22;11993;48.748;9.166;2022-12-29T17:16:01;9.70;82.50
23633;DHT22;11993;48.748;9.166;2022-12-29T17:18:27;9.70;82.60
23633;DHT22;11993;48.748;9.166;2022-12-29T17:20:52;9.70;82.40
23633;DHT22;11993;48.748;9.166;2022-12-29T17:23:18;9.60;82.50
23633;DHT22;11993;48.748;9.166;2022-12-29T17:25:44;9.50;82.80
23633;DHT22;11993;48.748;9.166;2022-12-29T17:28:21;9.50;83.10
23633;DHT22;11993;48.748;9.166;2022-12-29T17:30:48;9.60;82.90
23633;DHT22;11993;48.748;9.166;2022-12-29T17:33:16;9.60;83.00
23633;DHT22;11993;48.748;9.166;2022-12-29T17:35:42;9.50;83.10
23633;DHT22;11993;48.748;9.166;2022-12-29T17:38:17;9.50;83.10
23633;DHT22;11993;48.748;9.166;2022-12-29T17:40:43;9.50;83.30
23633;DHT22;11993;48.748;9.166;2022-12-29T17:43:12;9.50;83.50
23633;DHT22;11993;48.748;9.166;2022-12-29T17:45:38;9.50;83.40
23633;DHT22;11993;48.748;9.166;2022-12-29T17:48:15;9.40;83.50
23633;DHT22;11993;48.748;9.166;2022-12-29T17:50:42;9.30;83.70
23633;DHT22;11993;48.748;9.166;2022-12-29T17:53:13;9.40;83.90
23633;DHT22;11993;48.748;9.166;2022-12-29T17:55:39;9.50;83.80
23633;DHT22;11993;48.748;9.166;2022-12-29T17:58:19;9.60;83.70
23633;DHT22;11993;48.748;9.166;2022-12-29T18:00:47;9.60;83.60
23633;DHT22;11993;48.748;9.166;2022-12-29T18:03:18;9.50;83.50
23633;DHT22;11993;48.748;9.166;2022-12-29T18:05:45;9.50;83.60
23633;DHT22;11993;48.748;9.166;2022-12-29T18:08:11;9.40;83.90
23633;DHT22;11993;48.748;9.166;2022-12-29T18:10:37;9.40;84.10